createdAt,value
2022-11-05T08:58:00.781Z,91.5
2022-11-05T09:03:05.929Z,86.5
2022-11-05T09:08:12.035Z,89
2022-11-05T09:13:18.134Z,88.5
2022-11-05T09:18:24.292Z,84.5
2022-11-05T09:23:30.371Z,85.5
2022-11-05T09:28:36.476Z,83
2022-11-05T09:33:42.597Z,83.5
2022-11-05T09:38:48.694Z,82.5
2022-11-05T09:43:54.808Z,81
2022-11-05T09:49:00.950Z,78
2022-11-05T09:54:07.072Z,78.5
2022-11-05T09:59:13.170Z,73
2022-11-05T10:04:19.281Z,75
2022-11-05T10:09:25.387Z,72
2022-11-05T10:14:31.473Z,74.5
2022-11-05T10:19:37.573Z,71.5
2022-11-05T10:24:43.703Z,72
2022-11-05T10:29:49.850Z,74.5
2022-11-05T10:34:55.951Z,71.5
2022-11-05T10:40:01.095Z,73
2022-11-05T10:45:06.218Z,73.5
2022-11-05T10:50:12.306Z,73
2022-11-05T10:55:18.411Z,74.5
2022-11-05T11:00:24.512Z,76.5
2022-11-05T11:05:30.636Z,77
2022-11-05T11:10:36.782Z,77
2022-11-05T11:15:42.892Z,79
2022-11-05T11:20:49.028Z,78
2022-11-05T11:25:55.067Z,79
2022-11-05T11:31:01.195Z,74.5
2022-11-05T11:36:07.293Z,74.5
2022-11-05T11:41:13.405Z,69
2022-11-05T11:46:19.514Z,70.5
2022-11-05T11:51:24.654Z,70
2022-11-05T11:56:30.855Z,74
2022-11-05T12:01:36.858Z,72.5
2022-11-05T12:06:42.987Z,69.5
2022-11-05T12:11:49.096Z,70
2022-11-05T12:16:55.274Z,70.5
2022-11-05T12:22:01.317Z,74.5
2022-11-05T12:27:06.467Z,71.5
2022-11-05T12:32:11.586Z,68.5
2022-11-05T12:37:16.760Z,66.5
2022-11-05T12:42:21.853Z,65
2022-11-05T12:47:27.958Z,64.5
2022-11-05T12:52:34.094Z,65
2022-11-05T12:57:40.170Z,72.5
2022-11-05T13:02:46.292Z,68.5
2022-11-05T13:07:52.391Z,72.5
2022-11-05T13:12:58.559Z,70.5
2022-11-05T13:18:04.642Z,70.5
2022-11-05T13:23:10.742Z,63
2022-11-05T13:28:16.857Z,58.5
2022-11-05T13:33:22.957Z,59
2022-11-05T13:38:29.076Z,64.5
2022-11-05T13:43:35.177Z,57.5
2022-11-05T13:48:40.349Z,57.5
2022-11-05T13:53:46.457Z,56
2022-11-05T13:58:52.616Z,54.5
2022-11-05T14:03:58.688Z,59.5
2022-11-05T14:09:04.765Z,58.5
2022-11-05T14:14:10.884Z,62.5
2022-11-05T14:19:16.978Z,67
2022-11-05T14:24:22.122Z,72
2022-11-05T14:29:28.269Z,74.5
2022-11-05T14:34:33.384Z,74
2022-11-05T14:39:38.497Z,77
2022-11-05T14:44:43.628Z,77.5
2022-11-05T14:49:49.740Z,78
2022-11-05T14:54:55.844Z,80.5
2022-11-05T15:00:01.980Z,83
2022-11-05T15:05:08.085Z,87.5
2022-11-05T15:10:14.206Z,89.5
2022-11-05T15:15:20.304Z,91.5
2022-11-05T15:20:26.436Z,94
2022-11-05T15:25:32.543Z,95
2022-11-05T15:30:38.642Z,97
2022-11-05T15:35:44.779Z,98.5
2022-11-05T15:40:50.887Z,99.5
2022-11-05T15:45:56.973Z,99.5
2022-11-05T15:51:02.095Z,99.5
2022-11-05T15:56:08.205Z,99.5
2022-11-05T16:01:14.322Z,99.5
2022-11-05T16:06:20.456Z,99.5
2022-11-05T16:11:26.552Z,99.5
2022-11-05T16:16:32.666Z,99.5
2022-11-05T16:21:38.821Z,99.5
2022-11-05T16:26:43.925Z,99.5
2022-11-05T16:31:49.036Z,99.5
2022-11-05T16:36:54.178Z,99.5
2022-11-05T16:41:59.308Z,99.5
2022-11-05T16:47:05.418Z,99.5
2022-11-05T16:52:11.533Z,99.5
2022-11-05T16:57:17.635Z,99.5
2022-11-05T17:02:23.770Z,99.5
2022-11-05T17:07:29.864Z,99.5
2022-11-05T17:12:35.992Z,99.5
2022-11-05T17:17:42.107Z,99.5
2022-11-05T17:22:48.218Z,99.5
2022-11-05T17:27:54.333Z,99.5
2022-11-05T17:33:00.453Z,99.5
2022-11-05T17:38:06.549Z,99.5
2022-11-05T17:43:12.663Z,99.5
2022-11-05T17:48:17.797Z,99.5
2022-11-05T17:53:23.925Z,99.5
2022-11-05T17:58:30.061Z,99.5
2022-11-05T18:03:36.203Z,99.5
2022-11-05T18:08:42.342Z,99.5
2022-11-05T18:13:48.390Z,99.5
2022-11-05T18:18:54.560Z,99.5
2022-11-05T18:23:59.653Z,99.5
2022-11-05T18:29:04.842Z,99.5
2022-11-05T18:34:10.932Z,99.5
2022-11-05T18:39:17.009Z,99.5
2022-11-05T18:44:23.145Z,99.5
2022-11-05T18:49:29.295Z,99.5
2022-11-05T18:54:35.327Z,99.5
2022-11-05T18:59:41.457Z,99.5
2022-11-05T19:04:47.651Z,99.5
2022-11-05T19:09:53.707Z,99.5
2022-11-05T19:14:59.846Z,99.5
2022-11-05T19:20:05.962Z,99.5
2022-11-05T19:25:12.070Z,99.5
2022-11-05T19:30:18.228Z,99.5
2022-11-05T19:35:23.318Z,99.5
2022-11-05T19:40:29.513Z,99.5
2022-11-05T19:45:35.517Z,99.5
2022-11-05T19:50:41.682Z,99.5
2022-11-05T19:55:47.714Z,99.5
2022-11-05T20:00:53.850Z,99.5
2022-11-05T20:05:59.975Z,99.5
2022-11-05T20:11:05.135Z,99.5
2022-11-05T20:16:10.214Z,99.5
2022-11-05T20:21:15.362Z,99.5
2022-11-05T20:26:20.574Z,99.5
2022-11-05T20:31:25.645Z,99.5
2022-11-05T20:36:30.811Z,99.5
2022-11-05T20:41:36.931Z,99.5
2022-11-05T20:46:42.004Z,99.5
2022-11-05T20:51:47.196Z,99.5
2022-11-05T20:56:53.320Z,99.5
2022-11-05T21:01:59.424Z,99.5
2022-11-05T21:07:05.538Z,99.5
2022-11-05T21:12:11.589Z,99.5
2022-11-05T21:17:17.765Z,99.5
2022-11-05T21:22:23.834Z,99.5
2022-11-05T21:27:29.951Z,99.5
2022-11-05T21:32:36.072Z,99.5
2022-11-05T21:37:42.247Z,99.5
2022-11-05T21:42:48.311Z,99.5
2022-11-05T21:47:54.448Z,99.5
2022-11-05T21:53:00.596Z,99.5
2022-11-05T21:58:05.717Z,99.5
2022-11-05T22:03:11.754Z,99.5
2022-11-05T22:08:17.885Z,99.5
2022-11-05T22:13:23.995Z,99.5
2022-11-05T22:18:30.130Z,99.5
2022-11-05T22:23:36.221Z,99.5
2022-11-05T22:28:42.426Z,99.5
2022-11-05T22:33:47.539Z,99.5
2022-11-05T22:38:52.679Z,99.5
2022-11-05T22:43:58.788Z,99.5
2022-11-05T22:49:04.918Z,99.5
2022-11-05T22:54:10.928Z,99.5
2022-11-05T22:59:17.057Z,99.5
2022-11-05T23:04:23.204Z,99.5
2022-11-05T23:09:29.278Z,99.5
2022-11-05T23:14:35.434Z,99.5
2022-11-05T23:19:41.521Z,99.5
2022-11-05T23:24:47.703Z,99.5
2022-11-05T23:29:53.744Z,99.5
2022-11-05T23:34:59.906Z,99.5
2022-11-05T23:40:06.000Z,99.5
2022-11-05T23:45:11.121Z,99.5
2022-11-05T23:55:23.388Z,99.5
